Steyr, Austria
Current Conditions -  °F | °C
As of 4:20 PM on Thursday 18 Dec 2014 (Local Time) from LOWL Reporting Station
Drizzle Drizzle  
Wind Chill: 46°   Ceiling: 1600
Heat Index: 48°   Visibility: 3mi
Dew Point: 46°   Wind: 6mph
Humidity: 93%   Direction: 260°W
Pressure: 30"   Gusts: NA
Location:  48.04°N, 14.41°E
Report Text: LOWL 181520Z 26005KT 5000 -DZ BR FEW004 BKN016 BKN045 09/08 Q1016 NOSIG
Loading
Personal Weather Stations






























Interactive Weather Map New forecast layout! Learn more

10-Day Weather Forecast

Advertisements
Track Severe Weather on mobile